Time;durP1;ratioP1;P1;durP2;ratioP2;P2;SDS_P1;SDS_P2;PMS_P1;PMS_P2;Temp;Humidity;BMP_temperature;BMP_pressure;BME280_temperature;BME280_humidity;BME280_pressure;Samples;Min_cycle;Max_cycle;Signal;HPM_P1;HPM_P2
2022/07/31 00:00:56;;;;;;;2.60;2.50;;;;;;;24.62;86.21;99038.81;5133307;27;20205;-67
2022/07/31 00:03:23;;;;;;;2.00;1.90;;;;;;;24.84;86.16;99062.13;5133251;27;20190;-67
2022/07/31 00:05:51;;;;;;;3.20;3.00;;;;;;;24.97;87.14;99065.22;5132905;27;20198;-67
2022/07/31 00:08:18;;;;;;;2.43;2.33;;;;;;;25.03;86.56;99059.41;5132960;27;20202;-67
2022/07/31 00:10:45;;;;;;;2.33;2.20;;;;;;;25.14;88.34;99065.44;5127426;27;20198;-67
2022/07/31 00:13:12;;;;;;;2.53;2.30;;;;;;;25.25;90.13;99078.34;5112704;28;20665;-67
2022/07/31 00:15:39;;;;;;;2.33;2.23;;;;;;;25.35;90.91;99079.94;5112454;28;20243;-67
2022/07/31 00:18:07;;;;;;;2.50;2.30;;;;;;;25.44;92.51;99079.03;5112331;27;20662;-67
2022/07/31 00:20:35;;;;;;;2.27;2.17;;;;;;;25.50;91.24;99070.59;5131690;27;20598;-67
2022/07/31 00:23:03;;;;;;;3.00;2.83;;;;;;;25.55;91.34;99078.06;5131232;27;20654;-67
2022/07/31 00:25:30;;;;;;;3.40;2.70;;;;;;;25.56;90.91;99088.38;5132501;27;20668;-67
2022/07/31 00:27:57;;;;;;;2.53;2.33;;;;;;;25.56;91.96;99079.69;5132810;27;20673;-67
2022/07/31 00:30:24;;;;;;;2.30;2.20;;;;;;;25.54;91.60;99084.25;5131702;27;20201;-67
2022/07/31 00:32:51;;;;;;;3.03;2.90;;;;;;;25.53;91.13;99072.94;5132875;27;20661;-67
2022/07/31 00:35:19;;;;;;;2.83;2.63;;;;;;;25.52;90.97;99075.72;5132449;27;20213;-67
2022/07/31 00:37:46;;;;;;;2.90;2.70;;;;;;;25.47;91.16;99077.91;5127667;27;20209;-67
2022/07/31 00:40:17;;;;;;;2.70;2.60;;;;;;;25.39;91.81;99073.44;5117049;27;20216;-67
2022/07/31 00:42:44;;;;;;;2.70;2.60;;;;;;;25.34;92.44;99062.53;5121246;27;20202;-67
2022/07/31 00:45:11;;;;;;;3.00;2.90;;;;;;;25.32;92.87;99053.16;5112038;27;20237;-67
2022/07/31 00:47:38;;;;;;;2.93;2.73;;;;;;;25.26;93.20;99053.75;5112023;28;20198;-67
2022/07/31 00:50:06;;;;;;;2.23;2.03;;;;;;;25.14;94.04;99060.97;5111756;28;20256;-67
2022/07/31 00:52:33;;;;;;;2.80;2.60;;;;;;;24.97;94.70;99064.41;5114520;27;20294;-67
2022/07/31 00:55:00;;;;;;;2.70;2.60;;;;;;;24.81;94.62;99059.75;5132450;27;20227;-67
2022/07/31 00:57:28;;;;;;;2.63;2.53;;;;;;;24.89;93.18;99078.22;5132366;27;20201;-67
2022/07/31 00:59:55;;;;;;;2.57;2.47;;;;;;;24.81;94.11;99085.13;5132131;27;20229;-67
2022/07/31 01:02:21;;;;;;;2.77;2.67;;;;;;;24.72;94.69;99086.81;5132204;27;20194;-67
2022/07/31 01:04:48;;;;;;;3.73;3.40;;;;;;;24.39;95.21;99096.03;5132217;27;20616;-67
2022/07/31 01:07:15;;;;;;;3.83;3.40;;;;;;;24.19;96.91;99098.78;5126213;27;20663;-66
2022/07/31 01:09:43;;;;;;;3.47;3.27;;;;;;;24.07;97.64;99097.25;5120206;27;20254;-66
2022/07/31 01:12:15;;;;;;;3.57;3.37;;;;;;;24.13;97.44;99104.59;5111750;28;20256;-67
2022/07/31 01:14:48;;;;;;;3.70;3.40;;;;;;;24.12;97.05;99103.75;5111584;28;20198;-66
2022/07/31 01:17:18;;;;;;;3.27;3.17;;;;;;;24.10;98.48;99099.59;5111324;28;20203;-67
2022/07/31 01:19:46;;;;;;;4.20;3.80;;;;;;;24.05;99.21;99098.22;5111515;28;20215;-66
2022/07/31 01:22:28;;;;;;;5.53;3.83;;;;;;;24.04;98.91;99091.31;5121058;27;20190;-67
2022/07/31 01:25:07;;;;;;;3.20;3.10;;;;;;;24.05;98.48;99098.22;5131946;27;20662;-67
2022/07/31 01:27:50;;;;;;;3.90;3.70;;;;;;;24.13;98.04;99094.13;5131603;27;20255;-67
2022/07/31 01:30:23;;;;;;;3.30;3.20;;;;;;;24.08;98.24;99097.09;5125641;27;20209;-67
2022/07/31 01:32:53;;;;;;;3.30;3.20;;;;;;;24.10;97.46;99087.34;5114314;27;20201;-67
2022/07/31 01:35:23;;;;;;;3.07;2.97;;;;;;;24.15;97.28;99086.94;5117427;27;20203;-67
2022/07/31 01:37:55;;;;;;;3.13;2.93;;;;;;;24.17;96.71;99083.19;5128491;27;20213;-67
2022/07/31 01:40:28;;;;;;;4.00;3.60;;;;;;;24.23;95.92;99084.47;5124104;27;20225;-67
2022/07/31 01:42:58;;;;;;;3.30;3.10;;;;;;;24.26;94.93;99078.94;5111004;28;20239;-67
2022/07/31 01:45:28;;;;;;;4.10;3.90;;;;;;;24.31;94.95;99077.53;5129596;27;20657;-67
2022/07/31 01:47:57;;;;;;;3.00;2.90;;;;;;;24.27;94.15;99059.63;5130860;27;20198;-67
2022/07/31 01:50:26;;;;;;;3.50;3.30;;;;;;;24.41;93.48;99077.53;5131299;27;20193;-66
2022/07/31 01:52:56;;;;;;;4.17;3.97;;;;;;;24.45;93.76;99068.41;5119542;27;20198;-67
2022/07/31 01:55:26;;;;;;;3.40;3.20;;;;;;;24.45;94.13;99064.00;5111138;28;20771;-67
2022/07/31 01:57:54;;;;;;;3.53;3.30;;;;;;;24.41;93.63;99061.78;5131023;27;20194;-67
2022/07/31 02:00:21;;;;;;;3.87;3.67;;;;;;;24.40;93.57;99065.38;5129589;28;20210;-67
2022/07/31 02:02:51;;;;;;;3.87;3.60;;;;;;;24.31;94.86;99074.09;5110491;28;20716;-67
2022/07/31 02:05:20;;;;;;;3.67;3.37;;;;;;;24.18;95.26;99076.19;5117481;28;20578;-67
2022/07/31 02:07:49;;;;;;;4.47;4.17;;;;;;;24.05;96.64;99077.25;5110635;28;20194;-67
2022/07/31 02:10:17;;;;;;;4.47;4.27;;;;;;;23.85;97.73;99075.59;5110740;28;20186;-66
2022/07/31 02:12:45;;;;;;;4.40;4.20;;;;;;;23.67;98.60;99064.19;5110419;28;20195;-67
2022/07/31 02:15:15;;;;;;;4.80;4.50;;;;;;;23.60;99.71;99081.38;5111960;28;20636;-67
2022/07/31 02:17:44;;;;;;;4.93;4.53;;;;;;;23.43;100.00;99063.72;5110473;28;20201;-67
2022/07/31 02:20:15;;;;;;;6.10;5.70;;;;;;;23.36;100.00;99066.03;5110948;28;20250;-67
2022/07/31 02:22:42;;;;;;;6.07;5.30;;;;;;;23.18;100.00;99075.50;5110614;28;20202;-66
2022/07/31 02:25:10;;;;;;;5.47;5.20;;;;;;;23.11;100.00;99076.13;5110493;28;20210;-67
2022/07/31 02:27:39;;;;;;;6.20;5.80;;;;;;;23.02;100.00;99073.38;5112189;28;20667;-67
2022/07/31 02:30:07;;;;;;;5.77;5.47;;;;;;;22.91;100.00;99078.69;5113993;27;20281;-67
2022/07/31 02:32:35;;;;;;;6.50;6.10;;;;;;;22.89;100.00;99064.94;5116816;28;20210;-67
2022/07/31 02:35:03;;;;;;;6.07;5.57;;;;;;;22.82;100.00;99073.44;5112097;27;20197;-67
2022/07/31 02:37:33;;;;;;;5.50;5.20;;;;;;;22.82;100.00;99068.19;5118943;28;20206;-67
2022/07/31 02:40:02;;;;;;;6.07;5.67;;;;;;;22.75;100.00;99075.72;5110471;28;20194;-67
2022/07/31 02:42:30;;;;;;;5.70;5.20;;;;;;;22.70;100.00;99054.41;5110383;28;20195;-67
2022/07/31 02:44:57;;;;;;;5.23;4.97;;;;;;;22.79;100.00;99069.28;5110346;28;20203;-67
2022/07/31 02:47:24;;;;;;;5.67;5.30;;;;;;;22.72;100.00;99067.31;5129573;28;20205;-67
2022/07/31 02:49:53;;;;;;;5.33;4.93;;;;;;;22.76;100.00;99073.94;5118666;28;20671;-67
2022/07/31 02:52:20;;;;;;;5.77;5.43;;;;;;;22.74;100.00;99071.47;5109853;28;20206;-67
2022/07/31 03:06:35;;;;;;;5.57;5.17;;;;;;;23.25;100.00;99086.25;5128756;27;20558;-68
2022/07/31 03:09:02;;;;;;;5.53;5.23;;;;;;;23.08;100.00;99068.56;5129039;27;20190;-67
2022/07/31 03:11:29;;;;;;;5.93;5.53;;;;;;;23.05;100.00;99084.53;5129043;27;20637;-67
2022/07/31 03:14:00;;;;;;;5.50;5.20;;;;;;;22.74;100.00;99071.47;5128250;27;20205;-68
2022/07/31 03:16:29;;;;;;;5.20;4.90;;;;;;;22.77;100.00;99080.84;5128515;27;20190;-67
2022/07/31 03:18:57;;;;;;;5.80;5.23;;;;;;;22.72;100.00;99075.16;5128501;27;20198;-68
2022/07/31 03:21:24;;;;;;;5.40;5.07;;;;;;;22.64;100.00;99067.13;5127975;27;20197;-67
2022/07/31 03:23:53;;;;;;;5.50;5.20;;;;;;;22.53;100.00;99070.63;5126130;27;20198;-67
2022/07/31 03:26:20;;;;;;;4.97;4.50;;;;;;;22.45;100.00;99073.09;5128475;27;20204;-67
2022/07/31 03:28:47;;;;;;;5.00;4.70;;;;;;;22.41;100.00;99069.91;5128577;27;20194;-67
2022/07/31 03:31:14;;;;;;;5.47;5.07;;;;;;;22.38;100.00;99067.53;5128323;27;20209;-67
2022/07/31 03:33:41;;;;;;;4.77;4.30;;;;;;;22.30;100.00;99069.97;5128271;27;20597;-67
2022/07/31 03:36:08;;;;;;;5.17;4.77;;;;;;;22.35;100.00;99080.03;5127953;27;20220;-68
2022/07/31 03:38:35;;;;;;;6.13;5.40;;;;;;;22.32;100.00;99085.50;5128105;27;20194;-67
2022/07/31 03:41:03;;;;;;;5.43;5.03;;;;;;;22.20;100.00;99076.06;5128385;27;20227;-67
2022/07/31 03:43:32;;;;;;;6.00;5.50;;;;;;;22.20;100.00;99092.56;5128281;27;20573;-67
2022/07/31 03:46:00;;;;;;;5.57;5.17;;;;;;;22.02;100.00;99086.25;5128155;27;20565;-67
2022/07/31 03:48:29;;;;;;;5.13;4.93;;;;;;;21.97;100.00;99094.44;5128432;27;20221;-67
2022/07/31 03:50:56;;;;;;;5.47;5.17;;;;;;;21.92;100.00;99083.56;5127595;27;20191;-67
2022/07/31 03:53:24;;;;;;;5.67;5.23;;;;;;;21.95;100.00;99093.75;5126951;27;20202;-67
2022/07/31 03:55:53;;;;;;;6.00;5.50;;;;;;;22.00;100.00;99085.56;5127440;27;20241;-67
2022/07/31 03:58:22;;;;;;;5.50;5.20;;;;;;;22.08;100.00;99083.13;5127457;27;20195;-68
2022/07/31 04:00:49;;;;;;;5.20;4.90;;;;;;;22.11;100.00;99087.28;5127482;28;20194;-67
2022/07/31 04:03:17;;;;;;;5.13;4.83;;;;;;;22.12;100.00;99086.31;5127637;27;20297;-67
2022/07/31 04:05:44;;;;;;;4.67;4.23;;;;;;;22.14;100.00;99084.41;5123716;27;20229;-67
2022/07/31 04:08:10;;;;;;;4.47;4.10;;;;;;;22.13;100.00;99085.38;5113990;28;20213;-67
2022/07/31 04:10:37;;;;;;;4.23;4.03;;;;;;;22.09;100.00;99082.19;5113698;28;20677;-67
2022/07/31 04:13:05;;;;;;;4.37;4.13;;;;;;;22.15;100.00;99073.84;5113556;28;20195;-67
2022/07/31 04:15:33;;;;;;;4.00;3.80;;;;;;;22.24;100.00;99075.69;5112920;28;20222;-67
2022/07/31 04:18:00;;;;;;;3.83;3.57;;;;;;;22.35;100.00;99080.03;5113213;28;20214;-67
2022/07/31 04:20:27;;;;;;;4.03;3.73;;;;;;;22.37;100.00;99057.22;5113618;28;20555;-67
2022/07/31 04:22:54;;;;;;;4.93;3.80;;;;;;;22.55;100.00;99071.34;5113244;28;20198;-67
2022/07/31 04:25:21;;;;;;;4.57;4.27;;;;;;;22.63;100.00;99066.28;5112916;28;20223;-67
2022/07/31 04:27:48;;;;;;;4.03;3.63;;;;;;;22.77;100.00;99078.22;5113322;28;20205;-67
2022/07/31 04:30:14;;;;;;;4.17;3.87;;;;;;;22.84;100.00;99077.56;5113429;28;20195;-67
2022/07/31 04:32:43;;;;;;;4.00;3.80;;;;;;;22.95;100.00;99074.84;5113764;28;20198;-67
2022/07/31 04:35:10;;;;;;;3.80;3.60;;;;;;;23.12;100.00;99075.19;5112922;28;20272;-67
2022/07/31 04:37:37;;;;;;;5.00;4.70;;;;;;;23.25;100.00;99081.84;5112394;28;20195;-68
2022/07/31 04:40:04;;;;;;;3.87;3.67;;;;;;;23.43;99.68;99084.66;5113312;28;20201;-67
2022/07/31 04:42:31;;;;;;;5.03;4.63;;;;;;;23.55;97.77;99085.38;5113463;28;20273;-67
2022/07/31 04:44:58;;;;;;;4.00;3.70;;;;;;;23.57;97.42;99086.91;5113397;28;20195;-68
2022/07/31 04:47:25;;;;;;;3.67;3.47;;;;;;;23.53;98.12;99067.19;5113357;28;20202;-67
2022/07/31 04:49:53;;;;;;;3.33;3.13;;;;;;;23.73;97.39;99076.72;5112359;28;20256;-68
2022/07/31 04:52:20;;;;;;;4.27;3.90;;;;;;;23.93;96.63;99078.38;5111926;28;20677;-67
2022/07/31 04:54:47;;;;;;;4.30;3.90;;;;;;;24.08;95.15;99070.91;5113154;28;20225;-67
2022/07/31 04:57:13;;;;;;;3.80;3.60;;;;;;;24.29;95.66;99083.91;5113105;28;20684;-68
2022/07/31 04:59:40;;;;;;;3.90;3.70;;;;;;;24.38;92.56;99056.84;5112396;28;20202;-67
2022/07/31 05:02:07;;;;;;;3.17;2.97;;;;;;;24.67;91.30;99081.19;5110366;28;20195;-68
2022/07/31 05:04:34;;;;;;;2.87;2.77;;;;;;;24.74;91.09;99079.66;5112654;28;20230;-67
2022/07/31 05:07:02;;;;;;;4.17;3.87;;;;;;;25.03;90.40;99090.88;5112537;28;20195;-68
2022/07/31 05:09:32;;;;;;;3.57;3.27;;;;;;;25.23;88.58;99093.41;5111921;28;20195;-67
2022/07/31 05:11:59;;;;;;;3.73;3.53;;;;;;;25.35;86.01;99094.84;5112783;28;20555;-67
2022/07/31 05:14:25;;;;;;;3.17;2.97;;;;;;;25.38;84.99;99089.31;5112554;28;20203;-67
2022/07/31 05:16:52;;;;;;;2.80;2.70;;;;;;;25.32;84.45;99085.47;5112644;28;20251;-67
2022/07/31 05:19:19;;;;;;;3.47;3.27;;;;;;;25.36;84.42;99086.00;5111619;28;20195;-67
2022/07/31 05:21:46;;;;;;;3.33;3.23;;;;;;;25.34;83.56;99082.69;5109121;28;20198;-67
2022/07/31 05:24:14;;;;;;;4.07;3.77;;;;;;;25.30;83.66;99078.72;5112192;28;20210;-68
2022/07/31 05:26:41;;;;;;;3.53;3.43;;;;;;;25.44;84.24;99078.22;5112039;28;20686;-67
2022/07/31 05:29:08;;;;;;;3.50;3.30;;;;;;;25.48;82.81;99079.56;5112223;28;20209;-67
2022/07/31 05:31:35;;;;;;;3.67;3.47;;;;;;;25.57;83.61;99081.34;5111541;28;20203;-67
2022/07/31 05:34:01;;;;;;;7.73;3.77;;;;;;;25.76;82.75;99080.38;5112126;28;20662;-66
2022/07/31 05:36:28;;;;;;;4.30;3.13;;;;;;;25.91;81.30;99077.06;5111628;28;20303;-65
2022/07/31 05:38:55;;;;;;;4.00;3.67;;;;;;;25.99;80.56;99074.50;5110883;28;20214;-65
2022/07/31 05:41:23;;;;;;;3.77;3.37;;;;;;;26.09;80.76;99080.50;5108779;28;20203;-65
2022/07/31 05:43:50;;;;;;;3.13;2.83;;;;;;;26.14;77.67;99079.25;5111262;28;20221;-65
2022/07/31 05:46:17;;;;;;;2.80;2.70;;;;;;;26.23;76.30;99070.47;5110113;28;20285;-64
2022/07/31 05:48:44;;;;;;;3.87;3.67;;;;;;;26.32;77.27;99080.06;5110680;28;20207;-65
2022/07/31 05:51:12;;;;;;;3.77;3.00;;;;;;;26.56;79.06;99074.94;5111898;28;20582;-68
2022/07/31 05:53:41;;;;;;;3.10;3.00;;;;;;;26.86;77.38;99074.50;5109634;28;20210;-68
2022/07/31 05:56:08;;;;;;;3.90;3.60;;;;;;;27.08;77.19;99079.19;5111289;28;20222;-74
2022/07/31 05:58:36;;;;;;;3.93;3.50;;;;;;;27.28;75.73;99077.13;5111685;28;20198;-74
2022/07/31 06:01:05;;;;;;;3.30;3.20;;;;;;;27.31;74.52;99073.34;5111606;28;20198;-68
2022/07/31 06:03:34;;;;;;;4.47;4.17;;;;;;;27.37;72.42;99080.59;5111616;28;20247;-68
2022/07/31 06:06:02;;;;;;;3.30;3.20;;;;;;;27.21;71.86;99057.69;5111488;28;20327;-67
2022/07/31 06:08:30;;;;;;;3.30;3.10;;;;;;;27.42;72.79;99078.31;5108755;28;20650;-68
2022/07/31 06:10:57;;;;;;;3.73;3.53;;;;;;;27.62;73.58;99074.44;5111042;28;20645;-68
2022/07/31 06:13:25;;;;;;;4.23;4.03;;;;;;;27.78;72.18;99071.84;5110529;28;20212;-67
2022/07/31 06:15:54;;;;;;;3.40;3.20;;;;;;;28.11;71.56;99073.50;5111287;28;20279;-67
2022/07/31 06:18:21;;;;;;;3.53;3.33;;;;;;;28.27;70.13;99077.16;5109277;28;20985;-68
2022/07/31 06:20:48;;;;;;;4.13;3.83;;;;;;;28.40;70.95;99072.97;5111002;28;20198;-68
2022/07/31 06:23:15;;;;;;;3.87;3.53;;;;;;;28.31;69.22;99062.63;5111206;28;20658;-68
2022/07/31 06:25:42;;;;;;;4.27;3.97;;;;;;;28.51;69.46;99077.09;5111727;28;20225;-67
2022/07/31 06:28:09;;;;;;;6.10;3.97;;;;;;;28.56;68.21;99072.16;5111748;28;20198;-68
2022/07/31 06:30:36;;;;;;;4.07;3.87;;;;;;;28.53;69.03;99064.59;5111243;28;20205;-67
2022/07/31 06:33:04;;;;;;;3.93;3.63;;;;;;;28.64;69.75;99074.75;5111582;28;20285;-67
2022/07/31 06:35:31;;;;;;;4.63;4.50;;;;;;;28.87;68.89;99073.06;5111527;28;20211;-67
2022/07/31 06:37:58;;;;;;;4.90;4.70;;;;;;;28.78;66.68;99068.81;5111221;28;20221;-68
2022/07/31 06:40:25;;;;;;;4.43;4.13;;;;;;;28.74;67.17;99070.16;5111272;28;20206;-67
2022/07/31 06:42:52;;;;;;;4.83;4.37;;;;;;;28.91;68.58;99074.38;5110536;28;20581;-67
2022/07/31 06:45:19;;;;;;;4.60;4.30;;;;;;;29.22;67.57;99078.88;5111129;28;20691;-67
2022/07/31 06:47:46;;;;;;;4.57;4.00;;;;;;;29.24;67.60;99066.34;5110498;28;20198;-68
2022/07/31 06:50:14;;;;;;;4.70;4.50;;;;;;;29.36;67.75;99075.53;5111140;28;20259;-68
2022/07/31 06:52:41;;;;;;;4.80;4.40;;;;;;;29.28;68.08;99047.34;5111381;28;20205;-68
2022/07/31 06:55:08;;;;;;;4.00;3.80;;;;;;;29.38;66.67;99079.63;5111259;28;20631;-68
2022/07/31 06:57:37;;;;;;;4.77;4.47;;;;;;;29.53;68.44;99069.16;5111311;28;20205;-68
2022/07/31 07:00:05;;;;;;;4.82;4.63;;;;;;;29.51;68.13;99063.22;5111009;28;20210;-68
2022/07/31 07:02:32;;;;;;;4.47;4.28;;;;;;;29.58;67.89;99074.75;5111496;28;20195;-68
2022/07/31 07:04:59;;;;;;;5.30;4.90;;;;;;;29.75;68.29;99075.47;5111095;28;20227;-68
2022/07/31 07:07:27;;;;;;;4.93;4.72;;;;;;;30.02;67.26;99083.69;5111084;28;20206;-68
2022/07/31 07:09:54;;;;;;;5.38;5.07;;;;;;;30.32;65.97;99075.84;5111369;28;20225;-68
2022/07/31 07:12:21;;;;;;;5.57;5.13;;;;;;;30.48;64.86;99062.47;5111026;28;20206;-68
2022/07/31 07:14:48;;;;;;;5.63;5.22;;;;;;;30.76;64.71;99071.44;5111269;28;20586;-68
2022/07/31 07:17:16;;;;;;;5.38;5.18;;;;;;;30.87;63.95;99073.63;5110804;28;20222;-68
2022/07/31 07:19:42;;;;;;;4.97;4.72;;;;;;;30.99;63.00;99074.00;5110961;28;20662;-68
2022/07/31 07:22:09;;;;;;;5.70;5.40;;;;;;;30.96;67.59;99071.72;5110832;28;20203;-68
2022/07/31 07:24:37;;;;;;;5.75;5.43;;;;;;;31.04;65.14;99069.00;5111074;28;20199;-68
2022/07/31 07:27:05;;;;;;;5.35;5.05;;;;;;;30.95;66.13;99049.75;5110981;28;20574;-67
2022/07/31 07:29:31;;;;;;;11.02;5.95;;;;;;;31.27;63.70;99074.97;5111211;28;20214;-68
2022/07/31 07:31:58;;;;;;;5.50;5.05;;;;;;;31.41;62.93;99063.50;5111144;28;20211;-68
2022/07/31 07:34:25;;;;;;;5.25;4.95;;;;;;;31.43;63.15;99058.03;5110775;28;20219;-68
2022/07/31 07:36:52;;;;;;;5.40;5.10;;;;;;;31.71;62.32;99069.56;5110861;28;20709;-68
2022/07/31 07:39:19;;;;;;;5.25;4.97;;;;;;;31.93;63.72;99065.06;5110729;28;20213;-68
2022/07/31 07:41:47;;;;;;;8.25;5.72;;;;;;;31.94;59.94;99072.84;5112032;28;20207;-68
2022/07/31 07:44:14;;;;;;;5.63;5.05;;;;;;;31.60;61.41;99072.75;5111556;28;20264;-68
2022/07/31 07:46:41;;;;;;;5.60;5.30;;;;;;;31.36;61.49;99062.44;5113493;28;20199;-68
2022/07/31 07:49:08;;;;;;;5.65;5.32;;;;;;;31.52;62.47;99070.19;5112758;28;20225;-68
2022/07/31 07:51:35;;;;;;;5.55;5.20;;;;;;;31.48;59.92;99076.84;5114699;28;20210;-68
2022/07/31 07:54:01;;;;;;;5.65;5.25;;;;;;;31.48;61.31;99071.53;5114591;28;20658;-68
2022/07/31 07:56:28;;;;;;;5.80;5.30;;;;;;;31.37;61.65;99058.78;5114138;28;20219;-68
2022/07/31 07:58:56;;;;;;;5.30;5.03;;;;;;;31.52;59.90;99062.25;5114770;28;20206;-68
2022/07/31 08:01:25;;;;;;;6.20;5.75;;;;;;;31.62;58.46;99068.06;5114437;28;20280;-68
2022/07/31 08:03:51;;;;;;;5.25;5.00;;;;;;;31.70;62.79;99054.66;5114358;28;20199;-69
2022/07/31 08:06:19;;;;;;;5.68;5.38;;;;;;;31.89;61.03;99059.34;5113940;28;20255;-68
2022/07/31 08:08:46;;;;;;;5.68;5.40;;;;;;;32.06;60.43;99065.22;5114251;27;20210;-69
2022/07/31 08:11:12;;;;;;;5.82;5.53;;;;;;;32.12;58.92;99067.94;5114284;28;20195;-68
2022/07/31 08:13:39;;;;;;;4.88;4.57;;;;;;;32.29;55.96;99065.00;5114228;28;20195;-68
2022/07/31 08:16:08;;;;;;;4.68;4.47;;;;;;;32.30;57.63;99056.84;5114127;28;20221;-68
2022/07/31 08:18:34;;;;;;;5.30;4.95;;;;;;;32.31;57.11;99055.84;5113998;28;20195;-68
2022/07/31 08:21:01;;;;;;;5.30;5.10;;;;;;;32.31;58.07;99053.19;5114022;28;20198;-69
2022/07/31 08:23:28;;;;;;;5.88;5.28;;;;;;;32.29;58.19;99049.91;5113827;28;20203;-69
2022/07/31 08:25:55;;;;;;;5.15;4.90;;;;;;;32.41;58.30;99052.84;5114081;28;20199;-69
2022/07/31 08:28:24;;;;;;;12.80;5.78;;;;;;;32.65;58.62;99052.41;5113996;28;20198;-68
2022/07/31 08:30:51;;;;;;;6.75;6.30;;;;;;;32.75;60.71;99044.91;5113971;28;20259;-68
2022/07/31 08:33:19;;;;;;;5.63;5.35;;;;;;;33.00;57.88;99051.38;5114028;28;20704;-68
2022/07/31 08:35:48;;;;;;;5.18;4.97;;;;;;;33.02;55.50;99045.88;5113362;28;20210;-69
2022/07/31 08:38:15;;;;;;;6.60;6.20;;;;;;;32.64;55.81;99026.88;5112648;28;20203;-69
2022/07/31 08:40:43;;;;;;;6.10;5.80;;;;;;;32.63;57.56;99035.88;5113406;28;20218;-68
2022/07/31 08:43:09;;;;;;;5.80;5.35;;;;;;;32.70;57.28;99042.84;5112738;28;20646;-69
2022/07/31 08:45:37;;;;;;;6.47;6.07;;;;;;;32.81;59.36;99049.44;5113538;28;20207;-69
2022/07/31 08:48:07;;;;;;;7.28;6.88;;;;;;;32.90;58.38;99048.25;5110722;28;20226;-69
2022/07/31 08:50:39;;;;;;;6.97;6.47;;;;;;;32.91;57.61;99036.63;5113478;28;20662;-68
2022/07/31 08:53:08;;;;;;;6.35;5.95;;;;;;;33.06;57.86;99044.44;5113564;28;20203;-68
2022/07/31 08:55:35;;;;;;;6.13;5.63;;;;;;;33.01;59.12;99039.72;5113277;27;20198;-68
2022/07/31 08:58:02;;;;;;;6.43;6.13;;;;;;;33.01;57.22;99042.38;5113484;28;20198;-69
2022/07/31 09:00:28;;;;;;;5.93;5.63;;;;;;;33.03;55.39;99028.91;5113523;28;20198;-69
2022/07/31 09:02:55;;;;;;;6.63;6.07;;;;;;;33.07;57.81;99032.78;5112964;28;20252;-68
2022/07/31 09:05:23;;;;;;;5.93;5.53;;;;;;;32.87;53.11;99031.88;5112955;28;20237;-69
2022/07/31 09:07:52;;;;;;;6.10;5.80;;;;;;;32.83;54.18;99031.47;5113128;28;20654;-69
2022/07/31 09:10:24;;;;;;;6.28;5.68;;;;;;;32.91;56.16;99030.47;5113068;28;20195;-69
2022/07/31 09:12:51;;;;;;;5.78;5.47;;;;;;;33.06;56.00;99031.97;5112657;28;20202;-69
2022/07/31 09:15:23;;;;;;;5.00;4.63;;;;;;;33.02;52.49;99021.97;5113119;28;20195;-69
2022/07/31 09:17:51;;;;;;;5.10;4.68;;;;;;;33.28;54.60;99029.22;5112594;28;20214;-68
2022/07/31 09:20:19;;;;;;;4.95;4.72;;;;;;;33.34;52.60;99025.75;5112860;28;20206;-69
2022/07/31 09:22:47;;;;;;;5.20;4.90;;;;;;;33.35;53.00;99025.53;5112730;28;20234;-68
2022/07/31 09:25:17;;;;;;;4.53;4.30;;;;;;;33.51;52.50;99022.50;5111807;28;20199;-69
2022/07/31 09:27:45;;;;;;;4.47;4.20;;;;;;;33.60;53.23;99023.16;5111985;28;20195;-68
2022/07/31 09:30:13;;;;;;;4.32;4.13;;;;;;;33.58;51.90;99014.56;5112241;28;20574;-69
2022/07/31 09:32:40;;;;;;;5.68;4.35;;;;;;;33.51;52.65;99009.22;5112790;28;20221;-69
2022/07/31 09:35:09;;;;;;;4.57;4.38;;;;;;;33.54;54.04;99013.34;5112547;28;20711;-69
2022/07/31 09:37:36;;;;;;;4.68;4.47;;;;;;;33.63;51.42;99002.34;5111562;28;20218;-68
2022/07/31 09:40:03;;;;;;;4.72;4.53;;;;;;;33.80;52.78;99007.25;5110792;28;20203;-68
2022/07/31 09:42:41;;;;;;;3.95;3.83;;;;;;;33.91;52.40;99010.09;5112727;28;20209;-68
2022/07/31 09:45:19;;;;;;;4.32;4.13;;;;;;;33.82;52.36;99005.19;5112042;28;20298;-69
2022/07/31 09:47:46;;;;;;;4.30;4.10;;;;;;;33.89;49.84;98990.88;5112413;28;20273;-68
2022/07/31 09:50:13;;;;;;;4.05;3.60;;;;;;;33.99;50.99;98990.47;5112252;28;20582;-68
2022/07/31 09:52:40;;;;;;;3.88;3.67;;;;;;;34.23;50.11;98998.66;5112168;28;20209;-68
2022/07/31 09:55:09;;;;;;;3.63;3.30;;;;;;;34.40;48.95;98984.91;5111911;28;20697;-68
2022/07/31 09:57:40;;;;;;;4.57;4.18;;;;;;;34.20;46.14;98991.09;5112168;28;20214;-69
2022/07/31 10:00:08;;;;;;;3.45;3.35;;;;;;;34.03;47.75;98987.19;5111926;28;20199;-68
2022/07/31 10:02:36;;;;;;;7.40;3.75;;;;;;;33.94;47.53;98983.09;5112054;28;20191;-69
2022/07/31 10:05:04;;;;;;;3.65;3.45;;;;;;;33.99;48.44;98980.63;5111033;28;20317;-68
2022/07/31 10:07:34;;;;;;;3.35;3.25;;;;;;;34.10;51.08;98973.88;5111787;28;20255;-69
2022/07/31 10:10:03;;;;;;;3.47;3.38;;;;;;;33.89;46.54;98961.63;5111782;28;20201;-68
2022/07/31 10:12:33;;;;;;;6.28;4.53;;;;;;;34.00;48.96;98968.97;5112068;28;20203;-69
2022/07/31 10:15:05;;;;;;;3.78;3.58;;;;;;;34.09;51.43;98965.06;5111952;28;20210;-69
2022/07/31 10:17:35;;;;;;;3.38;3.25;;;;;;;34.22;51.48;98965.06;5111450;28;20683;-69
2022/07/31 10:20:05;;;;;;;3.45;3.35;;;;;;;34.37;47.13;98967.50;5111811;28;20234;-69
2022/07/31 10:22:35;;;;;;;3.00;2.90;;;;;;;34.34;46.13;98946.63;5111544;28;20199;-69
2022/07/31 10:25:03;;;;;;;3.15;3.00;;;;;;;34.38;46.35;98963.00;5109389;28;20676;-69
2022/07/31 10:27:30;;;;;;;3.17;3.08;;;;;;;34.40;46.19;98966.28;5111237;28;20208;-68
2022/07/31 10:29:58;;;;;;;3.13;2.92;;;;;;;34.47;44.88;98957.25;5111079;28;20207;-69
2022/07/31 10:32:27;;;;;;;3.20;3.10;;;;;;;34.40;45.64;98950.28;5111152;28;20626;-69
2022/07/31 10:34:54;;;;;;;3.17;3.05;;;;;;;34.19;44.93;98962.81;5111395;28;20251;-69
2022/07/31 10:37:31;;;;;;;4.00;3.80;;;;;;;34.29;46.96;98955.25;5109136;28;20210;-69
2022/07/31 10:40:04;;;;;;;3.20;3.10;;;;;;;34.21;46.15;98955.47;5110387;28;20242;-68
2022/07/31 10:42:41;;;;;;;3.05;2.95;;;;;;;34.19;45.45;98949.53;5111181;28;20198;-69
2022/07/31 10:45:09;;;;;;;3.05;2.95;;;;;;;34.34;45.10;98948.47;5111599;28;20281;-69
2022/07/31 10:47:38;;;;;;;3.20;3.10;;;;;;;34.34;45.04;98953.78;5111165;28;20195;-68
2022/07/31 10:50:06;;;;;;;2.95;2.85;;;;;;;34.23;45.96;98948.09;5111345;28;20195;-69
2022/07/31 10:52:35;;;;;;;2.55;2.45;;;;;;;34.17;45.09;98924.97;5111183;28;20201;-68
2022/07/31 10:55:14;;;;;;;2.95;2.75;;;;;;;34.42;43.95;98953.56;5111129;28;20194;-69
2022/07/31 10:57:41;;;;;;;3.30;2.90;;;;;;;34.50;45.25;98950.69;5110782;28;20225;-69
2022/07/31 11:00:12;;;;;;;2.97;2.88;;;;;;;34.58;42.24;98947.75;5110790;28;20655;-69
2022/07/31 11:02:40;;;;;;;2.53;2.42;;;;;;;34.62;43.29;98949.00;5110800;28;20202;-68
2022/07/31 11:05:13;;;;;;;2.50;2.40;;;;;;;34.55;42.58;98927.72;5111001;28;20237;-68
2022/07/31 11:07:40;;;;;;;2.67;2.47;;;;;;;34.70;43.80;98946.13;5110888;28;20259;-69
2022/07/31 11:10:17;;;;;;;2.70;2.60;;;;;;;34.64;41.71;98917.66;5111059;28;20198;-69
2022/07/31 11:12:44;;;;;;;2.53;2.42;;;;;;;34.89;39.79;98936.41;5110851;28;20251;-68
2022/07/31 11:15:29;;;;;;;2.85;2.75;;;;;;;34.98;43.27;98933.28;5111046;28;20198;-69
2022/07/31 11:17:57;;;;;;;2.83;2.72;;;;;;;35.06;41.65;98941.00;5114913;28;20225;-68
2022/07/31 11:20:29;;;;;;;2.85;2.65;;;;;;;34.98;40.32;98927.13;5115225;28;20734;-69
2022/07/31 11:22:59;;;;;;;2.50;2.40;;;;;;;34.84;40.71;98926.38;5115136;28;20194;-68
2022/07/31 11:25:28;;;;;;;2.55;2.45;;;;;;;34.88;40.96;98932.91;5115163;28;20195;-69
2022/07/31 11:27:55;;;;;;;2.45;2.35;;;;;;;34.72;41.41;98917.44;5114993;28;21149;-69
2022/07/31 11:30:22;;;;;;;2.55;2.40;;;;;;;34.80;39.80;98930.47;5114968;28;20191;-70
2022/07/31 11:32:50;;;;;;;2.88;2.70;;;;;;;34.52;39.43;98927.31;5107398;28;20466;-72
2022/07/31 11:35:31;;;;;;;2.80;2.70;;;;;;;34.46;41.79;98926.31;5111658;28;20631;-72
2022/07/31 11:37:59;;;;;;;3.20;3.10;;;;;;;34.44;41.82;98911.59;5111696;28;20219;-72
2022/07/31 11:40:26;;;;;;;3.50;3.30;;;;;;;34.43;42.69;98917.94;5111816;28;20210;-72
2022/07/31 11:42:53;;;;;;;3.60;3.30;;;;;;;34.34;46.38;98913.88;5111912;28;20206;-71
2022/07/31 11:45:20;;;;;;;3.70;3.60;;;;;;;34.29;43.37;98917.97;5112710;28;20218;-71
2022/07/31 11:47:50;;;;;;;3.45;3.20;;;;;;;34.19;44.11;98922.91;5111400;28;20189;-72